sensor_id;sensor_type;location;lat;lon;timestamp;pressure;altitude;pressure_sealevel;temperature;humidity
59106;BME280;44891;50.204;8.132;2023-08-21T00:01:24;98839.50;;;20.67;100.00
59106;BME280;44891;50.204;8.132;2023-08-21T00:05:26;98842.31;;;20.32;100.00
59106;BME280;44891;50.204;8.132;2023-08-21T00:09:29;98837.63;;;20.24;100.00
59106;BME280;44891;50.204;8.132;2023-08-21T00:13:31;98834.72;;;20.45;100.00
59106;BME280;44891;50.204;8.132;2023-08-21T00:17:33;98840.19;;;20.34;100.00
59106;BME280;44891;50.204;8.132;2023-08-21T00:21:35;98828.47;;;20.54;100.00
59106;BME280;44891;50.204;8.132;2023-08-21T00:25:39;98829.53;;;20.53;100.00
59106;BME280;44891;50.204;8.132;2023-08-21T00:29:41;98822.13;;;20.50;100.00
59106;BME280;44891;50.204;8.132;2023-08-21T00:33:43;98824.63;;;20.42;100.00
59106;BME280;44891;50.204;8.132;2023-08-21T00:37:45;98833.19;;;20.38;100.00
59106;BME280;44891;50.204;8.132;2023-08-21T00:41:49;98821.28;;;20.31;100.00
59106;BME280;44891;50.204;8.132;2023-08-21T00:45:51;98822.22;;;20.21;100.00
59106;BME280;44891;50.204;8.132;2023-08-21T00:49:53;98817.38;;;20.23;100.00
59106;BME280;44891;50.204;8.132;2023-08-21T00:53:55;98820.19;;;20.32;100.00
59106;BME280;44891;50.204;8.132;2023-08-21T00:57:59;98827.91;;;20.15;100.00
59106;BME280;44891;50.204;8.132;2023-08-21T01:02:02;98821.91;;;20.23;100.00
59106;BME280;44891;50.204;8.132;2023-08-21T01:06:04;98821.63;;;20.24;100.00
59106;BME280;44891;50.204;8.132;2023-08-21T01:10:11;98783.72;;;19.61;100.00
59106;BME280;44891;50.204;8.132;2023-08-21T01:14:28;98823.28;;;19.72;100.00
59106;BME280;44891;50.204;8.132;2023-08-21T01:18:33;98827.56;;;19.97;100.00
59106;BME280;44891;50.204;8.132;2023-08-21T01:22:38;98833.63;;;20.03;100.00
59106;BME280;44891;50.204;8.132;2023-08-21T01:26:42;98838.81;;;19.94;100.00
59106;BME280;44891;50.204;8.132;2023-08-21T01:30:44;98843.22;;;20.04;100.00
59106;BME280;44891;50.204;8.132;2023-08-21T01:34:48;98841.91;;;20.01;100.00
59106;BME280;44891;50.204;8.132;2023-08-21T01:38:50;98847.50;;;20.00;100.00
59106;BME280;44891;50.204;8.132;2023-08-21T01:42:54;98849.56;;;19.84;100.00
59106;BME280;44891;50.204;8.132;2023-08-21T01:46:56;98857.63;;;19.45;100.00
59106;BME280;44891;50.204;8.132;2023-08-21T01:51:00;98845.47;;;19.68;100.00
59106;BME280;44891;50.204;8.132;2023-08-21T01:55:04;98848.28;;;19.81;100.00
59106;BME280;44891;50.204;8.132;2023-08-21T01:59:10;98849.47;;;19.94;100.00
59106;BME280;44891;50.204;8.132;2023-08-21T02:03:12;98847.31;;;19.96;100.00
59106;BME280;44891;50.204;8.132;2023-08-21T02:07:14;98845.81;;;19.85;100.00
59106;BME280;44891;50.204;8.132;2023-08-21T02:11:16;98840.88;;;19.97;100.00
59106;BME280;44891;50.204;8.132;2023-08-21T02:15:19;98848.50;;;19.56;100.00
59106;BME280;44891;50.204;8.132;2023-08-21T02:19:22;98845.16;;;19.74;100.00
59106;BME280;44891;50.204;8.132;2023-08-21T02:23:25;98839.75;;;19.79;100.00
59106;BME280;44891;50.204;8.132;2023-08-21T02:27:27;98847.19;;;19.82;100.00
59106;BME280;44891;50.204;8.132;2023-08-21T02:31:30;98848.06;;;19.73;100.00
59106;BME280;44891;50.204;8.132;2023-08-21T02:35:32;98848.72;;;19.60;100.00
59106;BME280;44891;50.204;8.132;2023-08-21T02:39:34;98852.09;;;19.41;100.00
59106;BME280;44891;50.204;8.132;2023-08-21T02:43:37;98850.94;;;19.47;100.00
59106;BME280;44891;50.204;8.132;2023-08-21T02:47:40;98850.56;;;19.64;100.00
59106;BME280;44891;50.204;8.132;2023-08-21T02:51:42;98852.97;;;19.61;100.00
59106;BME280;44891;50.204;8.132;2023-08-21T02:55:45;98853.56;;;19.52;100.00
59106;BME280;44891;50.204;8.132;2023-08-21T02:59:47;98854.56;;;19.27;100.00
59106;BME280;44891;50.204;8.132;2023-08-21T03:03:51;98849.81;;;19.24;100.00
59106;BME280;44891;50.204;8.132;2023-08-21T03:07:53;98857.34;;;18.78;100.00
59106;BME280;44891;50.204;8.132;2023-08-21T03:11:55;98847.00;;;18.71;100.00
59106;BME280;44891;50.204;8.132;2023-08-21T03:15:57;98845.56;;;18.89;100.00
59106;BME280;44891;50.204;8.132;2023-08-21T03:20:01;98846.22;;;19.10;100.00
59106;BME280;44891;50.204;8.132;2023-08-21T03:24:06;98845.47;;;19.34;100.00
59106;BME280;44891;50.204;8.132;2023-08-21T03:28:08;98849.47;;;19.36;100.00
59106;BME280;44891;50.204;8.132;2023-08-21T03:32:11;98861.31;;;19.20;100.00
59106;BME280;44891;50.204;8.132;2023-08-21T03:36:15;98851.69;;;19.24;100.00
59106;BME280;44891;50.204;8.132;2023-08-21T03:40:17;98852.84;;;19.13;100.00
59106;BME280;44891;50.204;8.132;2023-08-21T03:44:20;98849.53;;;19.26;100.00
59106;BME280;44891;50.204;8.132;2023-08-21T03:48:22;98855.41;;;19.28;100.00
59106;BME280;44891;50.204;8.132;2023-08-21T03:52:26;98853.31;;;19.20;100.00
59106;BME280;44891;50.204;8.132;2023-08-21T03:56:28;98859.63;;;18.95;100.00
59106;BME280;44891;50.204;8.132;2023-08-21T04:00:30;98851.88;;;18.98;100.00
59106;BME280;44891;50.204;8.132;2023-08-21T04:04:32;98850.44;;;18.77;100.00
59106;BME280;44891;50.204;8.132;2023-08-21T04:08:36;98860.22;;;18.82;100.00
59106;BME280;44891;50.204;8.132;2023-08-21T04:12:38;98855.44;;;18.84;100.00
59106;BME280;44891;50.204;8.132;2023-08-21T04:16:40;98861.06;;;18.82;100.00
59106;BME280;44891;50.204;8.132;2023-08-21T04:20:42;98858.03;;;18.44;100.00
59106;BME280;44891;50.204;8.132;2023-08-21T04:24:46;98848.69;;;18.47;100.00
59106;BME280;44891;50.204;8.132;2023-08-21T04:28:48;98859.50;;;18.66;100.00
59106;BME280;44891;50.204;8.132;2023-08-21T04:32:50;98868.47;;;18.85;100.00
59106;BME280;44891;50.204;8.132;2023-08-21T04:36:53;98866.88;;;18.89;100.00
59106;BME280;44891;50.204;8.132;2023-08-21T04:41:05;98865.34;;;18.73;100.00
59106;BME280;44891;50.204;8.132;2023-08-21T04:45:09;98864.91;;;18.56;100.00
59106;BME280;44891;50.204;8.132;2023-08-21T04:49:13;98864.75;;;18.81;100.00
59106;BME280;44891;50.204;8.132;2023-08-21T04:53:15;98826.00;;;18.70;100.00
59106;BME280;44891;50.204;8.132;2023-08-21T04:57:19;98867.22;;;19.12;100.00
59106;BME280;44891;50.204;8.132;2023-08-21T05:01:21;98870.16;;;19.15;100.00
59106;BME280;44891;50.204;8.132;2023-08-21T05:05:24;98872.00;;;19.15;100.00
59106;BME280;44891;50.204;8.132;2023-08-21T05:09:27;98872.81;;;19.15;100.00
59106;BME280;44891;50.204;8.132;2023-08-21T05:13:31;98876.19;;;19.21;100.00
59106;BME280;44891;50.204;8.132;2023-08-21T05:17:34;98875.16;;;19.22;100.00
59106;BME280;44891;50.204;8.132;2023-08-21T05:21:36;98872.72;;;19.25;100.00
59106;BME280;44891;50.204;8.132;2023-08-21T05:25:38;98882.03;;;19.28;100.00
59106;BME280;44891;50.204;8.132;2023-08-21T05:29:42;98889.38;;;19.41;100.00
59106;BME280;44891;50.204;8.132;2023-08-21T05:33:44;98893.53;;;19.58;100.00
59106;BME280;44891;50.204;8.132;2023-08-21T05:37:46;98890.13;;;19.81;100.00
59106;BME280;44891;50.204;8.132;2023-08-21T05:41:48;98898.75;;;19.97;100.00
59106;BME280;44891;50.204;8.132;2023-08-21T05:45:52;98896.69;;;20.13;100.00
59106;BME280;44891;50.204;8.132;2023-08-21T05:49:54;98896.59;;;20.23;100.00
59106;BME280;44891;50.204;8.132;2023-08-21T05:53:56;98899.94;;;20.33;100.00
59106;BME280;44891;50.204;8.132;2023-08-21T05:57:59;98873.84;;;20.30;100.00
59106;BME280;44891;50.204;8.132;2023-08-21T06:02:02;98888.47;;;20.57;100.00
59106;BME280;44891;50.204;8.132;2023-08-21T06:06:06;98885.34;;;20.74;100.00
59106;BME280;44891;50.204;8.132;2023-08-21T06:10:08;98888.22;;;20.96;100.00
59106;BME280;44891;50.204;8.132;2023-08-21T06:14:12;98884.38;;;21.02;100.00
59106;BME280;44891;50.204;8.132;2023-08-21T06:18:16;98886.88;;;21.12;100.00
59106;BME280;44891;50.204;8.132;2023-08-21T06:22:18;98890.38;;;21.13;100.00
59106;BME280;44891;50.204;8.132;2023-08-21T06:26:20;98887.97;;;21.11;100.00
59106;BME280;44891;50.204;8.132;2023-08-21T06:30:23;98886.88;;;21.31;100.00
59106;BME280;44891;50.204;8.132;2023-08-21T06:34:26;98896.63;;;21.41;100.00
59106;BME280;44891;50.204;8.132;2023-08-21T06:38:28;98895.69;;;21.64;100.00
59106;BME280;44891;50.204;8.132;2023-08-21T06:42:30;98894.53;;;21.70;100.00
59106;BME280;44891;50.204;8.132;2023-08-21T06:46:33;98890.50;;;21.87;99.50
59106;BME280;44891;50.204;8.132;2023-08-21T06:50:39;98894.78;;;22.02;99.67
59106;BME280;44891;50.204;8.132;2023-08-21T06:54:41;98885.56;;;22.08;99.63
59106;BME280;44891;50.204;8.132;2023-08-21T06:58:43;98880.22;;;22.08;100.00
59106;BME280;44891;50.204;8.132;2023-08-21T07:02:46;98887.38;;;22.26;99.10
59106;BME280;44891;50.204;8.132;2023-08-21T07:06:49;98852.38;;;22.22;97.43
59106;BME280;44891;50.204;8.132;2023-08-21T07:10:52;98892.00;;;22.62;97.79
59106;BME280;44891;50.204;8.132;2023-08-21T07:14:54;98889.50;;;22.79;97.40
59106;BME280;44891;50.204;8.132;2023-08-21T07:18:56;98882.19;;;23.07;94.38
59106;BME280;44891;50.204;8.132;2023-08-21T07:23:00;98886.00;;;23.37;92.14
59106;BME280;44891;50.204;8.132;2023-08-21T07:27:03;98884.22;;;23.55;90.60
59106;BME280;44891;50.204;8.132;2023-08-21T07:31:05;98888.59;;;23.65;90.15
59106;BME280;44891;50.204;8.132;2023-08-21T07:35:07;98887.53;;;23.74;89.31
59106;BME280;44891;50.204;8.132;2023-08-21T07:39:11;98879.81;;;23.81;89.81
59106;BME280;44891;50.204;8.132;2023-08-21T07:43:13;98876.44;;;23.98;89.34
59106;BME280;44891;50.204;8.132;2023-08-21T07:47:15;98879.34;;;24.19;90.06
59106;BME280;44891;50.204;8.132;2023-08-21T07:51:17;98884.91;;;24.31;89.28
59106;BME280;44891;50.204;8.132;2023-08-21T07:55:20;98886.66;;;24.36;90.27
59106;BME280;44891;50.204;8.132;2023-08-21T07:59:22;98880.22;;;24.46;89.46
59106;BME280;44891;50.204;8.132;2023-08-21T08:03:25;98890.34;;;24.49;87.17
59106;BME280;44891;50.204;8.132;2023-08-21T08:07:27;98882.78;;;24.59;86.36
59106;BME280;44891;50.204;8.132;2023-08-21T08:11:31;98881.19;;;24.76;86.87
59106;BME280;44891;50.204;8.132;2023-08-21T08:15:33;98877.91;;;24.87;86.75
59106;BME280;44891;50.204;8.132;2023-08-21T08:19:36;98889.47;;;25.05;85.51
59106;BME280;44891;50.204;8.132;2023-08-21T08:23:38;98887.56;;;25.14;85.77
59106;BME280;44891;50.204;8.132;2023-08-21T08:27:41;98891.50;;;25.34;84.89
59106;BME280;44891;50.204;8.132;2023-08-21T08:31:43;98884.66;;;25.63;84.58
59106;BME280;44891;50.204;8.132;2023-08-21T08:35:46;98879.22;;;25.80;82.38
59106;BME280;44891;50.204;8.132;2023-08-21T08:39:48;98887.88;;;25.94;82.45
59106;BME280;44891;50.204;8.132;2023-08-21T08:43:55;98881.97;;;26.01;79.75
59106;BME280;44891;50.204;8.132;2023-08-21T08:47:59;98876.06;;;26.16;80.37
59106;BME280;44891;50.204;8.132;2023-08-21T08:52:03;98881.34;;;26.42;79.32
59106;BME280;44891;50.204;8.132;2023-08-21T08:56:05;98877.22;;;26.66;79.40
59106;BME280;44891;50.204;8.132;2023-08-21T09:00:10;98872.09;;;26.73;78.69
59106;BME280;44891;50.204;8.132;2023-08-21T09:04:12;98876.34;;;26.74;75.57
59106;BME280;44891;50.204;8.132;2023-08-21T09:08:15;98866.84;;;26.76;75.44
59106;BME280;44891;50.204;8.132;2023-08-21T09:12:17;98870.06;;;26.91;71.55
59106;BME280;44891;50.204;8.132;2023-08-21T09:16:22;98869.13;;;27.28;69.22
59106;BME280;44891;50.204;8.132;2023-08-21T09:20:25;98864.31;;;27.46;68.87
59106;BME280;44891;50.204;8.132;2023-08-21T09:24:27;98855.53;;;27.82;70.06
59106;BME280;44891;50.204;8.132;2023-08-21T09:28:31;98861.94;;;27.90;68.10
59106;BME280;44891;50.204;8.132;2023-08-21T09:32:52;98858.59;;;27.93;65.40
59106;BME280;44891;50.204;8.132;2023-08-21T09:36:54;98853.97;;;27.94;63.42
59106;BME280;44891;50.204;8.132;2023-08-21T09:40:57;98851.94;;;28.15;65.59
59106;BME280;44891;50.204;8.132;2023-08-21T09:45:00;98856.00;;;28.21;63.14
59106;BME280;44891;50.204;8.132;2023-08-21T09:49:04;98857.78;;;28.41;64.14
59106;BME280;44891;50.204;8.132;2023-08-21T09:53:07;98855.50;;;28.56;63.02
59106;BME280;44891;50.204;8.132;2023-08-21T09:57:09;98850.16;;;28.71;59.75
59106;BME280;44891;50.204;8.132;2023-08-21T10:01:14;98841.00;;;28.88;58.53
59106;BME280;44891;50.204;8.132;2023-08-21T10:05:18;98845.28;;;29.17;59.20
59106;BME280;44891;50.204;8.132;2023-08-21T10:09:21;98834.28;;;29.54;58.04
59106;BME280;44891;50.204;8.132;2023-08-21T10:13:25;98840.66;;;29.62;58.56
59106;BME280;44891;50.204;8.132;2023-08-21T10:17:27;98847.66;;;29.78;56.93
59106;BME280;44891;50.204;8.132;2023-08-21T10:21:34;98839.38;;;29.28;56.95
59106;BME280;44891;50.204;8.132;2023-08-21T10:25:41;98834.22;;;29.22;58.30
59106;BME280;44891;50.204;8.132;2023-08-21T10:29:56;98831.06;;;29.80;57.51
59106;BME280;44891;50.204;8.132;2023-08-21T10:33:59;98836.38;;;29.92;54.88
59106;BME280;44891;50.204;8.132;2023-08-21T10:38:10;98834.63;;;29.84;54.48
59106;BME280;44891;50.204;8.132;2023-08-21T10:42:12;98830.19;;;29.92;55.07
59106;BME280;44891;50.204;8.132;2023-08-21T10:46:15;98824.22;;;30.37;53.97
59106;BME280;44891;50.204;8.132;2023-08-21T10:50:17;98827.31;;;30.55;53.79
59106;BME280;44891;50.204;8.132;2023-08-21T10:54:21;98831.09;;;30.85;52.72
59106;BME280;44891;50.204;8.132;2023-08-21T10:58:23;98818.13;;;31.18;51.57
59106;BME280;44891;50.204;8.132;2023-08-21T11:02:27;98817.50;;;31.24;50.59
59106;BME280;44891;50.204;8.132;2023-08-21T11:06:30;98818.84;;;30.95;50.79
59106;BME280;44891;50.204;8.132;2023-08-21T11:10:34;98816.59;;;30.78;52.46
59106;BME280;44891;50.204;8.132;2023-08-21T11:14:37;98821.91;;;30.55;53.63
59106;BME280;44891;50.204;8.132;2023-08-21T11:18:40;98815.38;;;30.75;54.25
59106;BME280;44891;50.204;8.132;2023-08-21T11:22:43;98816.22;;;30.99;53.36
59106;BME280;44891;50.204;8.132;2023-08-21T11:26:46;98813.69;;;31.29;52.13
59106;BME280;44891;50.204;8.132;2023-08-21T11:30:49;98817.03;;;31.22;51.88
59106;BME280;44891;50.204;8.132;2023-08-21T11:34:52;98805.25;;;31.80;50.11
59106;BME280;44891;50.204;8.132;2023-08-21T11:38:58;98803.19;;;31.27;50.49
59106;BME280;44891;50.204;8.132;2023-08-21T11:43:03;98806.03;;;31.34;50.34
59106;BME280;44891;50.204;8.132;2023-08-21T11:47:06;98813.47;;;31.37;50.16
59106;BME280;44891;50.204;8.132;2023-08-21T11:51:08;98804.59;;;31.40;50.10
59106;BME280;44891;50.204;8.132;2023-08-21T11:55:10;98798.56;;;31.08;49.79
59106;BME280;44891;50.204;8.132;2023-08-21T11:59:22;98803.97;;;30.85;51.52
59106;BME280;44891;50.204;8.132;2023-08-21T12:03:24;98795.84;;;31.51;48.36
59106;BME280;44891;50.204;8.132;2023-08-21T12:07:26;98786.50;;;31.75;48.73
59106;BME280;44891;50.204;8.132;2023-08-21T12:11:28;98791.00;;;31.40;48.36
59106;BME280;44891;50.204;8.132;2023-08-21T12:15:31;98796.44;;;31.63;49.47
59106;BME280;44891;50.204;8.132;2023-08-21T12:19:35;98783.91;;;32.35;46.37
59106;BME280;44891;50.204;8.132;2023-08-21T12:23:37;98776.44;;;32.58;46.15
59106;BME280;44891;50.204;8.132;2023-08-21T12:27:39;98780.56;;;32.48;45.62
59106;BME280;44891;50.204;8.132;2023-08-21T12:31:43;98775.31;;;32.03;46.90
59106;BME280;44891;50.204;8.132;2023-08-21T12:35:45;98761.38;;;32.68;47.02
59106;BME280;44891;50.204;8.132;2023-08-21T12:39:47;98757.06;;;32.97;46.92
59106;BME280;44891;50.204;8.132;2023-08-21T12:43:49;98758.84;;;32.82;46.63
59106;BME280;44891;50.204;8.132;2023-08-21T12:47:53;98755.28;;;32.14;47.19
59106;BME280;44891;50.204;8.132;2023-08-21T12:51:55;98755.19;;;31.81;46.49
59106;BME280;44891;50.204;8.132;2023-08-21T12:55:57;98754.56;;;32.17;46.39
59106;BME280;44891;50.204;8.132;2023-08-21T12:59:59;98746.66;;;32.09;46.13
59106;BME280;44891;50.204;8.132;2023-08-21T13:04:03;98747.13;;;32.14;45.96
59106;BME280;44891;50.204;8.132;2023-08-21T13:08:05;98745.28;;;31.69;45.33
59106;BME280;44891;50.204;8.132;2023-08-21T13:12:07;98736.16;;;32.07;46.22
59106;BME280;44891;50.204;8.132;2023-08-21T13:16:09;98738.22;;;32.47;43.38
59106;BME280;44891;50.204;8.132;2023-08-21T13:20:13;98735.66;;;31.98;46.27
59106;BME280;44891;50.204;8.132;2023-08-21T13:24:15;98745.84;;;32.05;46.33
59106;BME280;44891;50.204;8.132;2023-08-21T13:28:17;98737.06;;;32.82;44.36
59106;BME280;44891;50.204;8.132;2023-08-21T13:32:19;98730.63;;;33.97;42.90
59106;BME280;44891;50.204;8.132;2023-08-21T13:36:22;98730.72;;;34.18;42.12
59106;BME280;44891;50.204;8.132;2023-08-21T13:40:25;98723.13;;;34.77;41.41
59106;BME280;44891;50.204;8.132;2023-08-21T13:44:27;98729.34;;;34.56;41.21
59106;BME280;44891;50.204;8.132;2023-08-21T13:48:29;98725.81;;;34.59;42.29
59106;BME280;44891;50.204;8.132;2023-08-21T13:52:32;98722.03;;;35.10;41.31
59106;BME280;44891;50.204;8.132;2023-08-21T13:56:35;98722.13;;;34.13;42.40
59106;BME280;44891;50.204;8.132;2023-08-21T14:00:37;98709.31;;;33.51;43.28
59106;BME280;44891;50.204;8.132;2023-08-21T14:04:39;98714.66;;;33.95;43.55
59106;BME280;44891;50.204;8.132;2023-08-21T14:08:42;98704.41;;;34.54;42.81
59106;BME280;44891;50.204;8.132;2023-08-21T14:12:44;98711.91;;;35.50;42.62
59106;BME280;44891;50.204;8.132;2023-08-21T14:16:46;98697.03;;;34.76;43.30
59106;BME280;44891;50.204;8.132;2023-08-21T14:20:48;98697.06;;;35.48;42.03
59106;BME280;44891;50.204;8.132;2023-08-21T14:24:52;98702.13;;;35.17;41.85
59106;BME280;44891;50.204;8.132;2023-08-21T14:28:54;98688.50;;;35.03;41.72
59106;BME280;44891;50.204;8.132;2023-08-21T14:32:56;98683.00;;;36.62;38.79
59106;BME280;44891;50.204;8.132;2023-08-21T14:36:58;98679.22;;;36.31;38.45
59106;BME280;44891;50.204;8.132;2023-08-21T14:41:01;98683.00;;;34.81;41.00
59106;BME280;44891;50.204;8.132;2023-08-21T14:45:05;98684.97;;;35.24;40.91
59106;BME280;44891;50.204;8.132;2023-08-21T14:49:07;98671.69;;;37.12;37.86
59106;BME280;44891;50.204;8.132;2023-08-21T14:53:09;98665.56;;;37.79;36.16
59106;BME280;44891;50.204;8.132;2023-08-21T14:57:12;98667.78;;;37.92;36.07
59106;BME280;44891;50.204;8.132;2023-08-21T15:01:14;98661.50;;;36.57;37.54
59106;BME280;44891;50.204;8.132;2023-08-21T15:05:16;98643.38;;;36.11;37.41
59106;BME280;44891;50.204;8.132;2023-08-21T15:09:18;98653.91;;;36.16;38.54
59106;BME280;44891;50.204;8.132;2023-08-21T15:13:22;98663.06;;;34.52;43.96
59106;BME280;44891;50.204;8.132;2023-08-21T15:17:25;98661.16;;;35.24;44.40
59106;BME280;44891;50.204;8.132;2023-08-21T15:21:27;98658.03;;;34.83;44.65
59106;BME280;44891;50.204;8.132;2023-08-21T15:25:29;98661.88;;;33.59;46.98
59106;BME280;44891;50.204;8.132;2023-08-21T15:29:32;98649.44;;;32.62;49.86
59106;BME280;44891;50.204;8.132;2023-08-21T15:33:34;98658.38;;;31.96;51.73
59106;BME280;44891;50.204;8.132;2023-08-21T15:37:36;98654.44;;;32.57;50.59
59106;BME280;44891;50.204;8.132;2023-08-21T15:41:39;98646.53;;;34.06;47.76
59106;BME280;44891;50.204;8.132;2023-08-21T15:45:42;98644.97;;;33.98;47.84
59106;BME280;44891;50.204;8.132;2023-08-21T15:49:46;98648.94;;;32.90;50.04
59106;BME280;44891;50.204;8.132;2023-08-21T15:53:48;98642.31;;;33.39;49.20
59106;BME280;44891;50.204;8.132;2023-08-21T15:57:50;98641.69;;;34.86;46.37
59106;BME280;44891;50.204;8.132;2023-08-21T16:01:53;98643.22;;;35.27;45.13
59106;BME280;44891;50.204;8.132;2023-08-21T16:05:56;98640.88;;;34.57;46.48
59106;BME280;44891;50.204;8.132;2023-08-21T16:09:58;98642.03;;;33.04;48.47
59106;BME280;44891;50.204;8.132;2023-08-21T16:14:01;98626.91;;;33.72;48.39
59106;BME280;44891;50.204;8.132;2023-08-21T16:18:06;98638.53;;;34.56;46.85
59106;BME280;44891;50.204;8.132;2023-08-21T16:22:10;98629.47;;;34.16;47.34
59106;BME280;44891;50.204;8.132;2023-08-21T16:26:12;98635.16;;;33.86;47.97
59106;BME280;44891;50.204;8.132;2023-08-21T16:30:14;98625.66;;;32.96;50.18
59106;BME280;44891;50.204;8.132;2023-08-21T16:34:18;98629.44;;;32.10;51.37
59106;BME280;44891;50.204;8.132;2023-08-21T16:38:20;98629.28;;;31.39;53.79
59106;BME280;44891;50.204;8.132;2023-08-21T16:42:22;98638.47;;;31.08;54.09
59106;BME280;44891;50.204;8.132;2023-08-21T16:46:24;98633.44;;;30.42;55.92
59106;BME280;44891;50.204;8.132;2023-08-21T16:50:28;98638.75;;;30.15;57.12
59106;BME280;44891;50.204;8.132;2023-08-21T16:54:30;98639.72;;;30.46;57.05
59106;BME280;44891;50.204;8.132;2023-08-21T16:58:32;98634.72;;;30.09;58.25
59106;BME280;44891;50.204;8.132;2023-08-21T17:02:34;98630.59;;;30.35;57.29
59106;BME280;44891;50.204;8.132;2023-08-21T17:06:37;98646.31;;;30.25;57.20
59106;BME280;44891;50.204;8.132;2023-08-21T17:10:39;98640.25;;;29.93;57.77
59106;BME280;44891;50.204;8.132;2023-08-21T17:14:42;98631.03;;;29.78;58.35
59106;BME280;44891;50.204;8.132;2023-08-21T17:18:44;98634.72;;;29.70;59.30
59106;BME280;44891;50.204;8.132;2023-08-21T17:22:47;98639.59;;;29.81;58.60
59106;BME280;44891;50.204;8.132;2023-08-21T17:26:49;98648.47;;;29.62;59.16
59106;BME280;44891;50.204;8.132;2023-08-21T17:30:51;98646.41;;;29.39;59.87
59106;BME280;44891;50.204;8.132;2023-08-21T17:34:53;98650.88;;;29.00;61.63
59106;BME280;44891;50.204;8.132;2023-08-21T17:38:57;98642.41;;;29.02;61.58
59106;BME280;44891;50.204;8.132;2023-08-21T17:42:59;98643.44;;;28.81;62.73
59106;BME280;44891;50.204;8.132;2023-08-21T17:47:01;98651.97;;;28.67;62.41
59106;BME280;44891;50.204;8.132;2023-08-21T17:51:05;98648.06;;;28.37;63.20
59106;BME280;44891;50.204;8.132;2023-08-21T17:55:08;98651.03;;;27.91;65.02
59106;BME280;44891;50.204;8.132;2023-08-21T17:59:10;98658.00;;;27.92;64.73
59106;BME280;44891;50.204;8.132;2023-08-21T18:03:12;98646.59;;;27.99;64.39
59106;BME280;44891;50.204;8.132;2023-08-21T18:07:15;98653.97;;;27.86;65.20
59106;BME280;44891;50.204;8.132;2023-08-21T18:11:19;98646.78;;;27.78;65.47
59106;BME280;44891;50.204;8.132;2023-08-21T18:15:21;98657.13;;;27.64;65.59
59106;BME280;44891;50.204;8.132;2023-08-21T18:19:23;98660.88;;;27.47;66.28
59106;BME280;44891;50.204;8.132;2023-08-21T18:23:26;98663.22;;;27.36;67.51
59106;BME280;44891;50.204;8.132;2023-08-21T18:27:30;98676.63;;;27.21;67.89
59106;BME280;44891;50.204;8.132;2023-08-21T18:31:32;98685.78;;;26.95;69.95
59106;BME280;44891;50.204;8.132;2023-08-21T18:35:37;98684.06;;;26.91;69.54
59106;BME280;44891;50.204;8.132;2023-08-21T18:39:39;98690.00;;;26.84;69.60
59106;BME280;44891;50.204;8.132;2023-08-21T18:43:42;98687.03;;;26.65;70.79
59106;BME280;44891;50.204;8.132;2023-08-21T18:47:44;98682.56;;;26.69;71.25
59106;BME280;44891;50.204;8.132;2023-08-21T18:51:46;98689.72;;;26.65;71.23
59106;BME280;44891;50.204;8.132;2023-08-21T18:55:48;98691.47;;;26.48;71.48
59106;BME280;44891;50.204;8.132;2023-08-21T18:59:52;98692.56;;;26.26;71.10
59106;BME280;44891;50.204;8.132;2023-08-21T19:03:54;98692.50;;;26.14;71.91
59106;BME280;44891;50.204;8.132;2023-08-21T19:07:56;98700.94;;;25.92;72.52
59106;BME280;44891;50.204;8.132;2023-08-21T19:11:59;98691.88;;;25.96;74.12
59106;BME280;44891;50.204;8.132;2023-08-21T19:16:04;98702.16;;;25.94;74.62
59106;BME280;44891;50.204;8.132;2023-08-21T19:20:07;98703.66;;;25.54;74.32
59106;BME280;44891;50.204;8.132;2023-08-21T19:24:09;98712.88;;;25.44;74.90
59106;BME280;44891;50.204;8.132;2023-08-21T19:28:11;98717.44;;;25.52;75.84
59106;BME280;44891;50.204;8.132;2023-08-21T19:32:16;98716.31;;;25.15;78.33
59106;BME280;44891;50.204;8.132;2023-08-21T19:36:19;98718.63;;;24.70;78.32
59106;BME280;44891;50.204;8.132;2023-08-21T19:40:21;98718.44;;;24.75;79.29
59106;BME280;44891;50.204;8.132;2023-08-21T19:44:24;98718.28;;;24.80;79.17
59106;BME280;44891;50.204;8.132;2023-08-21T19:48:30;98712.59;;;24.81;78.84
59106;BME280;44891;50.204;8.132;2023-08-21T19:52:32;98721.16;;;24.66;79.53
59106;BME280;44891;50.204;8.132;2023-08-21T19:56:34;98715.75;;;24.23;80.64
59106;BME280;44891;50.204;8.132;2023-08-21T20:00:40;98716.13;;;24.38;80.73
59106;BME280;44891;50.204;8.132;2023-08-21T20:04:43;98716.09;;;24.21;80.66
59106;BME280;44891;50.204;8.132;2023-08-21T20:08:45;98710.59;;;23.60;83.77
59106;BME280;44891;50.204;8.132;2023-08-21T20:12:48;98711.94;;;23.80;83.14
59106;BME280;44891;50.204;8.132;2023-08-21T20:16:50;98718.28;;;23.93;82.68
59106;BME280;44891;50.204;8.132;2023-08-21T20:20:54;98712.72;;;23.90;82.26
59106;BME280;44891;50.204;8.132;2023-08-21T20:24:56;98725.97;;;23.77;83.47
59106;BME280;44891;50.204;8.132;2023-08-21T20:28:58;98721.75;;;23.94;81.99
59106;BME280;44891;50.204;8.132;2023-08-21T20:33:00;98713.50;;;23.81;82.40
59106;BME280;44891;50.204;8.132;2023-08-21T20:37:04;98715.84;;;23.66;83.36
59106;BME280;44891;50.204;8.132;2023-08-21T20:41:06;98708.38;;;23.14;85.13
59106;BME280;44891;50.204;8.132;2023-08-21T20:45:09;98712.13;;;22.60;87.63
59106;BME280;44891;50.204;8.132;2023-08-21T20:49:11;98713.00;;;22.77;87.45
59106;BME280;44891;50.204;8.132;2023-08-21T20:53:15;98713.28;;;22.90;86.50
59106;BME280;44891;50.204;8.132;2023-08-21T20:57:17;98718.75;;;23.07;86.05
59106;BME280;44891;50.204;8.132;2023-08-21T21:01:19;98714.31;;;22.80;86.99
59106;BME280;44891;50.204;8.132;2023-08-21T21:05:21;98720.44;;;22.36;89.60
59106;BME280;44891;50.204;8.132;2023-08-21T21:09:25;98716.91;;;22.27;89.22
59106;BME280;44891;50.204;8.132;2023-08-21T21:13:27;98711.13;;;21.83;92.43
59106;BME280;44891;50.204;8.132;2023-08-21T21:17:29;98707.72;;;22.05;91.32
59106;BME280;44891;50.204;8.132;2023-08-21T21:21:31;98713.97;;;22.14;90.76